Time;durP1;ratioP1;P1;durP2;ratioP2;P2;SDS_P1;SDS_P2;PMS_P1;PMS_P2;Temp;Humidity;BMP_temperature;BMP_pressure;BME280_temperature;BME280_humidity;BME280_pressure;Samples;Min_cycle;Max_cycle;Signal;HPM_P1;HPM_P2
2022/02/28 00:02:26;;;;;;;48.33;20.13;;;;;;;;;;5052853;28;20076;-92
2022/02/28 00:05:09;;;;;;;49.75;21.00;;;;;;;;;;5052769;28;20069;-93
2022/02/28 00:07:35;;;;;;;54.38;21.02;;;;;;;;;;5051743;28;20017;-92
2022/02/28 00:10:01;;;;;;;50.60;19.48;;;;;;;;;;5052624;28;20037;-94
2022/02/28 00:12:26;;;;;;;46.50;20.30;;;;;;;;;;5052872;28;20022;-91
2022/02/28 00:14:54;;;;;;;50.33;20.90;;;;;;;;;;5052567;28;20021;-92
2022/02/28 00:17:20;;;;;;;52.72;20.50;;;;;;;;;;5049012;28;20022;-92
2022/02/28 00:19:45;;;;;;;50.13;20.13;;;;;;;;;;5048720;28;20068;-92
2022/02/28 00:22:13;;;;;;;52.25;20.40;;;;;;;;;;5051450;28;20060;-94
2022/02/28 00:24:42;;;;;;;45.25;17.38;;;;;;;;;;5053118;28;20013;-93
2022/02/28 00:27:10;;;;;;;45.50;18.55;;;;;;;;;;5057159;28;20044;-92
2022/02/28 00:29:37;;;;;;;47.23;19.07;;;;;;;;;;5056218;28;20018;-93
2022/02/28 00:32:26;;;;;;;50.80;20.08;;;;;;;;;;5053842;28;20239;-93
2022/02/28 00:34:51;;;;;;;;;;;;;;;;;;5039349;28;20045;-91
2022/02/28 00:37:17;;;;;;;51.48;19.28;;;;;;;;;;5051639;28;20043;-91
2022/02/28 00:39:43;;;;;;;48.78;19.77;;;;;;;;;;5051791;28;20014;-92
2022/02/28 00:42:14;;;;;;;48.38;19.75;;;;;;;;;;5044992;28;20057;-92
2022/02/28 00:44:42;;;;;;;48.60;19.75;;;;;;;;;;5045342;28;20021;-93
2022/02/28 00:47:08;;;;;;;57.30;20.88;;;;;;;;;;5044521;28;20025;-92
2022/02/28 00:49:34;;;;;;;50.08;21.00;;;;;;;;;;5044547;28;20024;-92
2022/02/28 00:51:59;;;;;;;50.65;20.23;;;;;;;;;;5043131;28;20022;-93
2022/02/28 00:54:25;;;;;;;47.00;18.83;;;;;;;;;;5044721;28;20503;-93
2022/02/28 00:56:50;;;;;;;47.97;20.75;;;;;;;;;;5046218;28;20029;-92
2022/02/28 00:59:16;;;;;;;54.10;21.63;;;;;;;;;;5051838;28;20022;-95
2022/02/28 01:01:41;;;;;;;53.58;20.80;;;;;;;;;;5051023;28;20083;-94
2022/02/28 01:04:12;;;;;;;50.67;20.65;;;;;;;;;;5050971;28;20033;-93
2022/02/28 01:06:40;;;;;;;46.53;18.40;;;;;;;;;;5056929;28;20022;-94
2022/02/28 01:09:26;;;;;;;57.33;19.77;;;;;;;;;;5054225;28;20013;-94
2022/02/28 01:12:02;;;;;;;48.50;20.17;;;;;;;;;;5056150;28;20117;-94
2022/02/28 01:14:48;;;;;;;48.95;18.52;;;;;;;;;;5053666;28;20033;-93
2022/02/28 01:17:19;;;;;;;49.30;19.80;;;;;;;;;;5054273;28;20017;-94
2022/02/28 01:19:51;;;;;;;48.08;19.77;;;;;;;;;;5055153;28;20017;-93
2022/02/28 01:22:25;;;;;;;45.78;18.75;;;;;;;;;;5053907;28;20081;-92
2022/02/28 01:24:51;;;;;;;49.80;20.13;;;;;;;;;;5051363;28;20021;-93
2022/02/28 01:27:26;;;;;;;47.05;19.60;;;;;;;;;;5050719;28;20022;-92
2022/02/28 01:38:03;;;;;;;49.85;20.05;;;;;;;;;;5885197;22;20054;-94
2022/02/28 01:40:28;;;;;;;49.70;19.52;;;;;;;;;;5050172;28;20043;-92
2022/02/28 01:42:56;;;;;;;47.70;19.48;;;;;;;;;;5044889;28;20089;-94
2022/02/28 01:45:24;;;;;;;47.92;18.02;;;;;;;;;;5045515;28;20044;-91
2022/02/28 01:47:50;;;;;;;51.10;18.40;;;;;;;;;;5046960;28;20021;-93
2022/02/28 01:50:19;;;;;;;54.70;20.55;;;;;;;;;;5046340;28;20025;-93
2022/02/28 01:52:45;;;;;;;45.90;18.63;;;;;;;;;;5046211;28;20041;-92
2022/02/28 01:55:15;;;;;;;50.63;19.08;;;;;;;;;;5047697;28;20047;-91
2022/02/28 01:57:41;;;;;;;49.83;19.95;;;;;;;;;;5049624;28;20065;-92
2022/02/28 02:00:11;;;;;;;46.35;19.73;;;;;;;;;;5049376;28;20017;-94
2022/02/28 02:02:37;;;;;;;52.20;20.60;;;;;;;;;;5048615;28;20020;-92
2022/02/28 02:05:03;;;;;;;49.38;19.58;;;;;;;;;;5045528;28;20043;-92
2022/02/28 02:07:29;;;;;;;53.28;20.70;;;;;;;;;;5047375;28;20017;-91
2022/02/28 02:09:56;;;;;;;53.80;20.13;;;;;;;;;;5045592;28;20014;-92
2022/02/28 02:12:23;;;;;;;46.63;19.02;;;;;;;;;;5044712;28;20120;-92
2022/02/28 02:14:49;;;;;;;48.67;19.92;;;;;;;;;;5046716;28;20054;-91
2022/02/28 02:17:14;;;;;;;50.28;19.33;;;;;;;;;;5043481;28;20025;-91
2022/02/28 02:19:40;;;;;;;48.28;19.73;;;;;;;;;;5045037;28;20029;-93
2022/02/28 02:22:08;;;;;;;43.85;18.30;;;;;;;;;;5045050;28;20037;-91
2022/02/28 02:24:36;;;;;;;46.17;19.67;;;;;;;;;;5046560;28;20021;-93
2022/02/28 02:27:03;;;;;;;48.13;19.35;;;;;;;;;;5047994;28;20018;-92
2022/02/28 02:29:28;;;;;;;49.28;19.98;;;;;;;;;;5049700;28;20028;-92
2022/02/28 02:31:54;;;;;;;49.53;20.25;;;;;;;;;;5048050;28;20025;-93
2022/02/28 02:34:25;;;;;;;49.75;20.80;;;;;;;;;;5046799;28;20052;-92
2022/02/28 02:36:59;;;;;;;43.22;17.50;;;;;;;;;;5050183;28;20025;-92
2022/02/28 02:39:27;;;;;;;55.40;21.15;;;;;;;;;;5053802;28;20029;-92
2022/02/28 02:42:06;;;;;;;;;;;;;;;;;;;;;
2022/02/28 02:44:37;;;;;;;59.45;22.70;;;;;;;;;;5051933;28;20057;-92
2022/02/28 02:47:06;;;;;;;58.83;21.83;;;;;;;;;;5050328;28;20033;-92
2022/02/28 02:49:39;;;;;;;57.47;22.23;;;;;;;;;;5050451;28;20014;-91
2022/02/28 02:52:07;;;;;;;56.08;22.60;;;;;;;;;;5050431;28;20021;-92
2022/02/28 02:54:36;;;;;;;61.17;23.58;;;;;;;;;;5051869;28;20021;-92
2022/02/28 02:57:12;;;;;;;61.05;23.88;;;;;;;;;;5054019;28;20029;-90
2022/02/28 02:59:40;;;;;;;51.45;22.42;;;;;;;;;;5051321;28;20039;-91
2022/02/28 03:02:09;;;;;;;62.00;22.42;;;;;;;;;;5050657;28;20025;-91
2022/02/28 03:05:01;;;;;;;55.80;22.55;;;;;;;;;;5051072;28;20025;-92
2022/02/28 03:07:27;;;;;;;56.60;22.35;;;;;;;;;;5050092;28;20428;-92
2022/02/28 03:09:52;;;;;;;53.47;21.10;;;;;;;;;;5048040;28;20105;-92
2022/02/28 03:12:18;;;;;;;48.13;20.40;;;;;;;;;;5049387;28;20018;-91
2022/02/28 03:14:51;;;;;;;51.97;19.55;;;;;;;;;;5051300;28;20032;-91
2022/02/28 03:17:22;;;;;;;52.22;19.52;;;;;;;;;;5050188;28;20025;-91
2022/02/28 03:19:48;;;;;;;51.10;19.40;;;;;;;;;;5049951;28;20081;-90
2022/02/28 03:22:16;;;;;;;43.78;18.10;;;;;;;;;;5046213;28;20036;-91
2022/02/28 03:27:48;;;;;;;44.55;18.75;;;;;;;;;;5818388;22;20080;-92
2022/02/28 03:30:26;;;;;;;;;;;;;;;;;;;;;
2022/02/28 03:38:30;;;;;;;45.10;17.50;;;;;;;;;;5898717;22;20048;-92
2022/02/28 03:41:06;;;;;;;40.13;18.13;;;;;;;;;;5057347;28;20109;-92
2022/02/28 03:48:47;;;;;;;48.83;18.67;;;;;;;;;;5451997;22;20065;-92
2022/02/28 03:53:48;;;;;;;43.47;18.25;;;;;;;;;;6058391;22;20032;-86
2022/02/28 03:56:13;;;;;;;53.28;20.23;;;;;;;;;;5052132;28;20021;-92
2022/02/28 03:58:48;;;;;;;48.38;20.83;;;;;;;;;;5052296;28;20018;-91
2022/02/28 04:09:20;;;;;;;42.45;17.25;;;;;;;;;;5403881;22;20054;-90
2022/02/28 04:12:14;;;;;;;48.20;18.63;;;;;;;;;;5060744;28;20004;-91
2022/02/28 04:14:45;;;;;;;54.25;19.30;;;;;;;;;;6052952;22;20022;-83
2022/02/28 04:25:06;;;;;;;47.75;18.67;;;;;;;;;;5300274;22;20079;-90
2022/02/28 04:27:34;;;;;;;45.90;18.23;;;;;;;;;;5075481;28;20043;-91
2022/02/28 04:30:00;;;;;;;55.38;19.15;;;;;;;;;;5075355;28;20017;-92
2022/02/28 04:32:34;;;;;;;48.17;18.85;;;;;;;;;;5077641;28;20052;-91
2022/02/28 04:35:22;;;;;;;;;;;;;;;;;;;;;
2022/02/28 04:38:01;;;;;;;53.33;20.58;;;;;;;;;;5678635;22;20601;-92
2022/02/28 04:40:30;;;;;;;54.60;20.90;;;;;;;;;;5043182;28;20022;-90
2022/02/28 04:48:25;;;;;;;52.87;21.03;;;;;;;;;;5128071;22;20072;-90
2022/02/28 05:34:46;;;;;;;50.23;18.93;;;;;;;;;;5833416;22;20033;-82
2022/02/28 05:37:12;;;;;;;54.10;20.80;;;;;;;;;;5076011;28;20012;-82
2022/02/28 05:39:37;;;;;;;48.13;18.50;;;;;;;;;;5075944;28;20018;-83
2022/02/28 05:42:06;;;;;;;48.80;18.83;;;;;;;;;;5076378;28;20017;-82
2022/02/28 05:44:31;;;;;;;44.33;19.33;;;;;;;;;;5077706;28;20119;-84
2022/02/28 05:46:57;;;;;;;48.13;18.45;;;;;;;;;;5077152;28;20022;-84
2022/02/28 05:49:22;;;;;;;55.20;20.03;;;;;;;;;;5077361;28;20020;-83
2022/02/28 05:51:48;;;;;;;47.80;18.50;;;;;;;;;;5074988;28;20017;-82
2022/02/28 05:54:13;;;;;;;53.00;20.97;;;;;;;;;;5076099;28;20076;-84
2022/02/28 05:56:39;;;;;;;50.45;19.85;;;;;;;;;;5075707;28;20040;-83
2022/02/28 05:59:04;;;;;;;50.37;20.90;;;;;;;;;;5076238;28;20017;-83
2022/02/28 06:01:32;;;;;;;57.08;19.38;;;;;;;;;;5074717;28;20048;-82
2022/02/28 06:03:57;;;;;;;52.45;19.45;;;;;;;;;;5071973;28;20012;-83
2022/02/28 06:06:22;;;;;;;50.80;19.10;;;;;;;;;;5072684;28;20017;-82
2022/02/28 06:08:48;;;;;;;53.00;19.42;;;;;;;;;;5071506;28;20013;-82
2022/02/28 06:11:31;;;;;;;49.80;19.70;;;;;;;;;;5074343;28;20001;-84
2022/02/28 06:13:57;;;;;;;50.28;18.98;;;;;;;;;;5075436;28;20005;-82
2022/02/28 06:16:22;;;;;;;54.57;20.50;;;;;;;;;;5077068;28;20093;-83
2022/02/28 06:18:48;;;;;;;56.00;21.80;;;;;;;;;;5078398;28;20024;-84
2022/02/28 06:21:14;;;;;;;60.17;22.97;;;;;;;;;;5077818;28;20028;-84
2022/02/28 06:39:10;;;;;;;55.08;20.67;;;;;;;;;;5939296;22;20041;-82
2022/02/28 06:41:38;;;;;;;50.97;19.10;;;;;;;;;;5077943;28;20072;-84
2022/02/28 06:49:16;;;;;;;51.67;20.40;;;;;;;;;;5830678;22;20029;-85
2022/02/28 07:02:04;;;;;;;53.10;18.80;;;;;;;;;;5913810;22;20232;-83
2022/02/28 07:33:57;;;;;;;38.70;15.47;;;;;;;;;;5562204;22;20072;-81
2022/02/28 07:38:58;;;;;;;43.60;15.35;;;;;;;;;;5133981;22;20037;-84
2022/02/28 07:54:20;;;;;;;39.87;16.87;;;;;;;;;;5595950;22;20061;-82
2022/02/28 08:12:16;;;;;;;34.55;12.32;;;;;;;;;;5501264;22;20038;-84
2022/02/28 08:30:12;;;;;;;29.90;12.02;;;;;;;;;;5451960;22;20045;-81
2022/02/28 08:32:37;;;;;;;38.35;13.90;;;;;;;;;;5042865;28;20005;-84
2022/02/28 08:35:06;;;;;;;36.03;14.15;;;;;;;;;;5050469;28;20016;-83
2022/02/28 08:42:41;;;;;;;32.67;13.52;;;;;;;;;;5532944;22;20105;-83
2022/02/28 08:50:17;;;;;;;33.55;14.30;;;;;;;;;;5766629;22;20049;-83
2022/02/28 08:52:50;;;;;;;32.90;14.75;;;;;;;;;;5043197;28;20089;-83
2022/02/28 09:03:06;;;;;;;31.50;13.20;;;;;;;;;;5452096;23;20056;-83
2022/02/28 09:52:03;;;;;;;33.97;14.32;;;;;;;;;;5589196;23;20041;-83
2022/02/28 09:54:28;;;;;;;23.80;11.38;;;;;;;;;;5058658;28;20077;-84
2022/02/28 09:56:53;;;;;;;31.67;12.40;;;;;;;;;;5059489;28;20002;-85
2022/02/28 09:59:19;;;;;;;23.75;11.43;;;;;;;;;;5059587;28;20021;-83
2022/02/28 10:01:45;;;;;;;27.52;12.20;;;;;;;;;;5059417;28;20051;-84
2022/02/28 10:04:12;;;;;;;24.60;10.70;;;;;;;;;;5163523;23;20126;-85
2022/02/28 10:06:37;;;;;;;29.50;12.57;;;;;;;;;;5247158;23;20098;-88
2022/02/28 10:09:04;;;;;;;23.42;11.10;;;;;;;;;;5036305;28;20033;-89
2022/02/28 10:11:39;;;;;;;25.20;11.65;;;;;;;;;;5032413;28;20112;-89
2022/02/28 10:14:06;;;;;;;23.73;11.57;;;;;;;;;;5033877;28;20043;-90
2022/02/28 10:16:31;;;;;;;22.27;11.13;;;;;;;;;;5033602;28;20021;-90
2022/02/28 10:18:56;;;;;;;22.33;10.27;;;;;;;;;;5032626;28;20017;-89
2022/02/28 10:21:41;;;;;;;20.13;9.93;;;;;;;;;;5033652;28;20269;-88
2022/02/28 10:24:07;;;;;;;21.08;10.60;;;;;;;;;;5032516;28;20278;-88
2022/02/28 10:26:40;;;;;;;23.48;11.63;;;;;;;;;;5032148;28;20477;-86
2022/02/28 10:29:06;;;;;;;25.27;11.88;;;;;;;;;;5030432;28;20366;-86
2022/02/28 10:31:37;;;;;;;26.15;11.70;;;;;;;;;;5030572;28;20488;-85
2022/02/28 10:34:13;;;;;;;17.17;10.23;;;;;;;;;;5031700;28;20033;-85
2022/02/28 10:36:38;;;;;;;22.42;11.40;;;;;;;;;;5032059;28;20481;-84
2022/02/28 10:39:07;;;;;;;24.88;11.70;;;;;;;;;;5030651;28;20036;-83
2022/02/28 10:41:36;;;;;;;22.63;11.70;;;;;;;;;;5032847;28;20025;-82
2022/02/28 10:44:04;;;;;;;20.95;11.85;;;;;;;;;;5032717;28;20032;-81
2022/02/28 10:46:30;;;;;;;25.52;11.43;;;;;;;;;;5033491;28;20030;-83
2022/02/28 10:49:00;;;;;;;19.90;10.95;;;;;;;;;;5032438;28;20108;-84
2022/02/28 10:51:25;;;;;;;20.58;11.27;;;;;;;;;;5032212;28;20045;-85
2022/02/28 10:54:09;;;;;;;23.85;11.85;;;;;;;;;;5033814;28;20021;-84
2022/02/28 10:56:53;;;;;;;18.67;11.00;;;;;;;;;;5035493;28;20014;-84
2022/02/28 10:59:19;;;;;;;19.05;12.40;;;;;;;;;;5032560;28;20041;-84
2022/02/28 11:01:44;;;;;;;20.45;12.25;;;;;;;;;;5034226;28;20448;-83
2022/02/28 11:04:10;;;;;;;17.85;9.93;;;;;;;;;;5033191;28;20052;-84
2022/02/28 11:06:35;;;;;;;19.90;11.20;;;;;;;;;;5037198;28;20045;-86
2022/02/28 11:09:04;;;;;;;17.38;9.50;;;;;;;;;;5038934;28;20017;-82
2022/02/28 11:11:30;;;;;;;18.63;9.63;;;;;;;;;;5041095;28;20017;-83
2022/02/28 11:13:55;;;;;;;20.08;10.77;;;;;;;;;;5038954;28;20049;-83
2022/02/28 11:16:20;;;;;;;16.10;9.07;;;;;;;;;;5035388;28;20018;-85
2022/02/28 11:18:45;;;;;;;16.90;9.38;;;;;;;;;;5034301;28;20433;-83
2022/02/28 11:21:12;;;;;;;17.23;9.48;;;;;;;;;;5032026;28;20428;-85
2022/02/28 11:23:41;;;;;;;16.33;9.00;;;;;;;;;;5030207;28;20111;-83
2022/02/28 11:26:07;;;;;;;19.88;9.98;;;;;;;;;;5032501;28;20025;-82
2022/02/28 11:28:32;;;;;;;16.75;8.60;;;;;;;;;;5032708;28;20029;-83
2022/02/28 11:31:05;;;;;;;17.15;9.55;;;;;;;;;;5034990;28;20025;-84
2022/02/28 11:33:30;;;;;;;14.27;8.18;;;;;;;;;;5035228;28;20026;-82
2022/02/28 11:35:56;;;;;;;15.65;8.75;;;;;;;;;;5048642;23;20111;-76
2022/02/28 11:38:25;;;;;;;14.60;8.77;;;;;;;;;;5030537;28;20100;-76
2022/02/28 11:40:55;;;;;;;16.20;8.63;;;;;;;;;;5031807;28;20014;-75
2022/02/28 11:43:24;;;;;;;15.13;8.93;;;;;;;;;;5030819;28;20103;-75
2022/02/28 11:45:59;;;;;;;16.95;8.95;;;;;;;;;;5031406;28;20108;-76
2022/02/28 11:48:34;;;;;;;13.13;7.47;;;;;;;;;;5030322;28;20014;-76
2022/02/28 11:51:08;;;;;;;15.18;9.20;;;;;;;;;;5031709;28;20101;-75
2022/02/28 11:53:36;;;;;;;14.35;8.50;;;;;;;;;;5030875;28;20057;-77
2022/02/28 11:56:16;;;;;;;17.42;9.77;;;;;;;;;;5031139;28;20096;-76
2022/02/28 11:58:48;;;;;;;16.05;9.00;;;;;;;;;;5031343;28;20548;-76
2022/02/28 12:01:14;;;;;;;16.10;8.75;;;;;;;;;;5031336;28;20026;-75
2022/02/28 12:03:47;;;;;;;15.82;8.70;;;;;;;;;;5030861;28;20139;-76
2022/02/28 12:06:33;;;;;;;15.85;8.98;;;;;;;;;;5032492;28;20041;-76
2022/02/28 12:08:58;;;;;;;16.27;8.27;;;;;;;;;;5034852;28;20556;-75
2022/02/28 12:11:28;;;;;;;12.32;7.63;;;;;;;;;;5034999;28;20033;-75
2022/02/28 12:14:04;;;;;;;11.50;7.50;;;;;;;;;;5034578;28;20018;-77
2022/02/28 12:19:34;;;;;;;12.73;7.50;;;;;;;;;;5034988;28;20059;-77
2022/02/28 12:22:00;;;;;;;13.33;7.67;;;;;;;;;;5033286;28;20486;-77
2022/02/28 12:24:44;;;;;;;12.55;7.35;;;;;;;;;;5034822;28;20274;-77
2022/02/28 12:27:11;;;;;;;16.73;9.30;;;;;;;;;;5034639;28;20032;-77
2022/02/28 12:29:36;;;;;;;17.83;9.88;;;;;;;;;;5033381;28;20056;-77
2022/02/28 12:32:01;;;;;;;19.65;10.60;;;;;;;;;;5034252;28;20009;-77
2022/02/28 12:34:33;;;;;;;17.00;9.40;;;;;;;;;;5034651;28;20389;-76
2022/02/28 12:36:58;;;;;;;16.98;9.48;;;;;;;;;;5033387;28;20041;-75
2022/02/28 12:39:35;;;;;;;20.63;10.68;;;;;;;;;;5034610;28;20477;-77
2022/02/28 12:42:00;;;;;;;17.75;11.13;;;;;;;;;;5032992;28;20473;-77
2022/02/28 12:44:27;;;;;;;18.02;11.13;;;;;;;;;;5034365;28;20073;-76
2022/02/28 12:46:53;;;;;;;20.75;10.70;;;;;;;;;;5035677;28;20010;-75
2022/02/28 12:49:20;;;;;;;21.65;10.68;;;;;;;;;;5035695;28;20032;-76
2022/02/28 12:51:48;;;;;;;16.20;10.07;;;;;;;;;;5039860;28;20013;-77
2022/02/28 12:54:20;;;;;;;18.80;9.55;;;;;;;;;;5037818;28;20117;-75
2022/02/28 12:56:46;;;;;;;17.45;10.27;;;;;;;;;;5034348;28;20484;-76
2022/02/28 12:59:12;;;;;;;20.42;10.63;;;;;;;;;;5035310;28;20025;-75
2022/02/28 13:01:39;;;;;;;25.00;10.98;;;;;;;;;;5035267;28;20278;-76
2022/02/28 13:04:08;;;;;;;18.02;10.30;;;;;;;;;;5032978;28;20033;-76
2022/02/28 13:06:35;;;;;;;15.45;8.50;;;;;;;;;;5034439;28;20021;-75
2022/02/28 13:09:00;;;;;;;19.15;10.48;;;;;;;;;;5033018;28;20025;-76
2022/02/28 13:11:26;;;;;;;17.10;9.55;;;;;;;;;;5034051;28;20474;-75
2022/02/28 13:13:52;;;;;;;17.20;9.82;;;;;;;;;;5035027;28;20476;-78
2022/02/28 13:16:17;;;;;;;12.88;8.80;;;;;;;;;;5033264;28;20029;-75
2022/02/28 13:18:43;;;;;;;18.33;10.13;;;;;;;;;;5033348;28;20029;-76
2022/02/28 13:21:08;;;;;;;14.20;9.43;;;;;;;;;;5032625;28;20273;-77
2022/02/28 13:23:34;;;;;;;17.50;10.48;;;;;;;;;;5032123;28;20036;-77
2022/02/28 13:26:03;;;;;;;17.77;9.65;;;;;;;;;;5033807;28;20071;-76
2022/02/28 13:28:29;;;;;;;20.75;8.68;;;;;;;;;;5033838;28;20028;-76
2022/02/28 13:30:55;;;;;;;14.07;8.52;;;;;;;;;;5034356;28;20017;-77
2022/02/28 13:33:21;;;;;;;13.38;8.32;;;;;;;;;;5032127;28;20028;-76
2022/02/28 13:35:46;;;;;;;16.08;9.25;;;;;;;;;;5031850;28;20021;-76
2022/02/28 13:38:16;;;;;;;17.17;8.40;;;;;;;;;;5033155;28;20017;-76
2022/02/28 13:40:42;;;;;;;15.95;8.93;;;;;;;;;;5033382;28;20538;-76
2022/02/28 13:43:09;;;;;;;18.25;9.93;;;;;;;;;;5031606;28;20014;-77
2022/02/28 13:45:37;;;;;;;12.07;7.70;;;;;;;;;;5032158;28;20029;-76
2022/02/28 13:48:13;;;;;;;15.43;8.95;;;;;;;;;;5032202;28;20030;-75
2022/02/28 13:50:42;;;;;;;13.02;7.95;;;;;;;;;;5031883;28;20021;-76
2022/02/28 13:53:08;;;;;;;17.60;8.82;;;;;;;;;;5033503;28;20021;-76
2022/02/28 13:55:33;;;;;;;15.88;8.80;;;;;;;;;;5033570;28;20092;-77
2022/02/28 13:57:59;;;;;;;13.77;8.32;;;;;;;;;;5032195;28;20449;-76
2022/02/28 14:00:25;;;;;;;18.60;11.10;;;;;;;;;;5032243;28;20025;-75
2022/02/28 14:02:54;;;;;;;16.85;8.38;;;;;;;;;;5031287;28;20532;-77
2022/02/28 14:05:37;;;;;;;17.90;8.98;;;;;;;;;;5032759;28;20057;-75
2022/02/28 14:08:12;;;;;;;17.38;9.05;;;;;;;;;;5033297;28;20022;-75
2022/02/28 14:10:38;;;;;;;16.05;9.68;;;;;;;;;;5032281;28;20060;-75
2022/02/28 14:13:16;;;;;;;16.48;8.88;;;;;;;;;;5034686;28;20025;-75
2022/02/28 14:15:42;;;;;;;17.83;9.18;;;;;;;;;;5036115;28;20013;-75
2022/02/28 14:18:08;;;;;;;15.38;8.50;;;;;;;;;;5034716;28;20022;-77
2022/02/28 14:20:38;;;;;;;15.10;9.02;;;;;;;;;;5033444;28;20070;-76
2022/02/28 14:23:14;;;;;;;22.48;10.20;;;;;;;;;;5032374;28;20031;-76
2022/02/28 14:25:44;;;;;;;16.27;9.25;;;;;;;;;;5032599;28;20029;-76
2022/02/28 14:28:13;;;;;;;17.27;10.30;;;;;;;;;;5032534;28;20025;-75
2022/02/28 14:30:38;;;;;;;20.08;9.15;;;;;;;;;;5032587;28;20014;-76
2022/02/28 14:33:07;;;;;;;18.13;9.65;;;;;;;;;;5032104;28;20362;-76
2022/02/28 14:35:34;;;;;;;15.77;8.77;;;;;;;;;;5032291;28;20026;-76
2022/02/28 14:38:00;;;;;;;14.25;8.95;;;;;;;;;;5032680;28;20465;-76
2022/02/28 14:40:27;;;;;;;21.75;10.23;;;;;;;;;;5031276;28;20024;-75
2022/02/28 14:42:53;;;;;;;19.40;9.90;;;;;;;;;;5030891;28;20041;-75
2022/02/28 14:45:18;;;;;;;18.27;10.02;;;;;;;;;;5032488;28;20687;-76
2022/02/28 14:47:47;;;;;;;18.58;9.63;;;;;;;;;;5032445;28;20379;-75
2022/02/28 14:50:12;;;;;;;;;;;;;;;;;;5031083;28;20021;-76
2022/02/28 14:52:37;;;;;;;16.42;8.68;;;;;;;;;;5030116;28;19905;-74
2022/02/28 14:55:03;;;;;;;16.83;9.20;;;;;;;;;;5031753;28;20144;-74
2022/02/28 14:57:28;;;;;;;15.27;9.38;;;;;;;;;;5030747;28;20048;-75
2022/02/28 14:59:53;;;;;;;15.15;8.73;;;;;;;;;;5032201;28;20427;-73
2022/02/28 15:02:19;;;;;;;15.55;9.02;;;;;;;;;;5031746;28;20432;-75
2022/02/28 15:04:44;;;;;;;16.52;8.90;;;;;;;;;;5031356;28;20111;-74
2022/02/28 15:07:09;;;;;;;17.15;9.13;;;;;;;;;;5031618;28;20163;-74
2022/02/28 15:09:35;;;;;;;19.27;9.65;;;;;;;;;;5030305;28;20024;-74
2022/02/28 15:12:01;;;;;;;19.88;9.73;;;;;;;;;;5031246;28;20037;-76
2022/02/28 15:14:26;;;;;;;27.17;15.10;;;;;;;;;;5031785;28;20018;-75
2022/02/28 15:16:52;;;;;;;24.35;12.05;;;;;;;;;;5030053;28;20022;-76
2022/02/28 15:19:17;;;;;;;19.50;9.27;;;;;;;;;;5033292;28;20014;-75
2022/02/28 15:21:43;;;;;;;15.43;8.30;;;;;;;;;;5038023;28;20086;-75
2022/02/28 15:24:08;;;;;;;17.63;7.63;;;;;;;;;;5036363;28;20033;-75
2022/02/28 15:26:33;;;;;;;15.65;7.68;;;;;;;;;;5035910;28;20025;-74
2022/02/28 15:28:59;;;;;;;19.63;8.30;;;;;;;;;;5038979;28;20018;-77
2022/02/28 15:31:24;;;;;;;16.52;7.00;;;;;;;;;;5037998;28;20044;-75
2022/02/28 15:33:49;;;;;;;12.50;6.40;;;;;;;;;;5036896;28;20022;-75
2022/02/28 15:36:15;;;;;;;20.00;7.88;;;;;;;;;;5036299;28;20025;-75
2022/02/28 15:38:40;;;;;;;17.65;8.95;;;;;;;;;;5035994;28;20057;-74
2022/02/28 15:41:06;;;;;;;14.13;6.30;;;;;;;;;;5038160;28;20492;-75
2022/02/28 15:43:31;;;;;;;12.10;6.18;;;;;;;;;;5039706;28;20028;-75
2022/02/28 15:45:57;;;;;;;13.32;6.30;;;;;;;;;;5039267;28;20013;-74
2022/02/28 15:48:22;;;;;;;14.02;6.15;;;;;;;;;;5040788;28;20025;-74
2022/02/28 15:50:47;;;;;;;15.77;6.63;;;;;;;;;;5039401;28;20021;-74
2022/02/28 15:53:12;;;;;;;14.20;6.43;;;;;;;;;;5038523;28;20027;-75
2022/02/28 15:55:39;;;;;;;15.13;5.68;;;;;;;;;;5037190;28;20025;-75
2022/02/28 15:58:05;;;;;;;14.63;6.68;;;;;;;;;;5037642;28;20021;-74
2022/02/28 16:00:31;;;;;;;15.10;6.05;;;;;;;;;;5039716;28;20159;-74
2022/02/28 16:02:57;;;;;;;11.05;5.18;;;;;;;;;;5037957;28;20017;-75
2022/02/28 16:05:22;;;;;;;10.13;5.20;;;;;;;;;;5038481;28;20120;-74
2022/02/28 16:07:48;;;;;;;12.48;4.75;;;;;;;;;;5040768;28;20481;-75
2022/02/28 16:10:14;;;;;;;11.50;5.22;;;;;;;;;;5040747;28;20025;-75
2022/02/28 16:12:40;;;;;;;14.05;6.43;;;;;;;;;;5038691;28;20044;-75
2022/02/28 16:15:06;;;;;;;11.23;5.03;;;;;;;;;;5040175;28;20168;-74
2022/02/28 16:17:32;;;;;;;13.10;5.50;;;;;;;;;;5037872;28;20029;-75
2022/02/28 16:19:57;;;;;;;11.13;5.40;;;;;;;;;;5039921;28;20018;-73
2022/02/28 16:22:23;;;;;;;12.15;4.35;;;;;;;;;;5038437;28;20033;-74
2022/02/28 16:24:48;;;;;;;9.88;4.68;;;;;;;;;;5039309;28;20021;-74
2022/02/28 16:27:13;;;;;;;8.90;4.28;;;;;;;;;;5039969;28;20021;-74
2022/02/28 16:29:38;;;;;;;15.88;6.28;;;;;;;;;;5039425;28;20044;-74
2022/02/28 16:32:04;;;;;;;14.50;5.13;;;;;;;;;;5041006;28;20021;-76
2022/02/28 16:34:33;;;;;;;15.00;5.70;;;;;;;;;;5040589;28;20030;-74
2022/02/28 16:36:59;;;;;;;12.95;5.15;;;;;;;;;;5039267;28;20038;-75
2022/02/28 16:39:25;;;;;;;14.82;5.07;;;;;;;;;;5039527;28;20033;-74
2022/02/28 16:41:50;;;;;;;9.77;5.03;;;;;;;;;;5039186;28;20086;-74
2022/02/28 16:44:15;;;;;;;12.43;5.32;;;;;;;;;;5040266;28;20025;-75
2022/02/28 16:46:41;;;;;;;13.15;5.43;;;;;;;;;;5041607;28;20024;-76
2022/02/28 16:49:06;;;;;;;9.90;4.82;;;;;;;;;;5038725;28;20016;-75
2022/02/28 16:51:32;;;;;;;13.95;5.80;;;;;;;;;;5038675;28;20499;-74
2022/02/28 16:53:58;;;;;;;13.30;5.07;;;;;;;;;;5037884;28;20021;-74
2022/02/28 16:56:23;;;;;;;12.88;5.40;;;;;;;;;;5036860;28;20600;-74
2022/02/28 16:58:48;;;;;;;13.27;5.55;;;;;;;;;;5036422;28;20022;-74
2022/02/28 17:01:14;;;;;;;10.82;5.20;;;;;;;;;;5035916;28;20485;-75
2022/02/28 17:03:39;;;;;;;11.68;5.10;;;;;;;;;;5037191;28;20026;-75
2022/02/28 17:06:04;;;;;;;18.88;6.00;;;;;;;;;;5035847;28;20021;-75
2022/02/28 17:08:30;;;;;;;12.30;5.55;;;;;;;;;;5038030;28;20455;-73
2022/02/28 17:10:55;;;;;;;14.68;6.00;;;;;;;;;;5036558;28;20546;-74
2022/02/28 17:13:21;;;;;;;13.73;6.25;;;;;;;;;;5038079;28;20109;-75
2022/02/28 17:15:46;;;;;;;13.20;6.03;;;;;;;;;;5036994;28;20408;-76
2022/02/28 17:18:12;;;;;;;11.27;4.88;;;;;;;;;;5039922;28;20048;-75
2022/02/28 17:20:37;;;;;;;15.52;5.80;;;;;;;;;;5038998;28;20071;-75
2022/02/28 17:23:02;;;;;;;22.50;9.40;;;;;;;;;;5038771;28;20025;-75
2022/02/28 17:25:27;;;;;;;15.93;6.53;;;;;;;;;;5040303;28;20021;-76
2022/02/28 17:27:53;;;;;;;12.52;5.72;;;;;;;;;;5039638;28;20030;-76
2022/02/28 17:30:18;;;;;;;18.00;5.70;;;;;;;;;;5041181;28;20020;-74
2022/02/28 17:32:50;;;;;;;22.23;5.97;;;;;;;;;;5041823;28;20021;-76
2022/02/28 17:35:20;;;;;;;14.73;5.63;;;;;;;;;;5040853;28;20026;-76
2022/02/28 17:37:46;;;;;;;13.80;5.10;;;;;;;;;;5041176;28;20039;-74
2022/02/28 17:40:11;;;;;;;14.88;6.35;;;;;;;;;;5246600;23;20052;-85
2022/02/28 17:42:37;;;;;;;11.50;5.20;;;;;;;;;;5056438;28;20010;-89
2022/02/28 17:45:02;;;;;;;15.43;6.40;;;;;;;;;;5052407;28;20021;-88
2022/02/28 17:47:27;;;;;;;14.00;5.82;;;;;;;;;;5052426;28;20071;-88
2022/02/28 17:49:53;;;;;;;13.45;5.75;;;;;;;;;;5054863;28;20081;-88
2022/02/28 17:52:18;;;;;;;18.63;6.53;;;;;;;;;;5048961;28;20037;-90
2022/02/28 17:54:43;;;;;;;18.25;6.95;;;;;;;;;;5038163;28;20025;-88
2022/02/28 17:57:08;;;;;;;16.90;6.63;;;;;;;;;;5039776;28;20035;-86
2022/02/28 17:59:34;;;;;;;31.73;11.05;;;;;;;;;;5054498;28;20030;-87
2022/02/28 18:01:59;;;;;;;23.48;9.00;;;;;;;;;;5055540;28;20040;-89
2022/02/28 18:04:24;;;;;;;37.67;13.18;;;;;;;;;;5058743;28;20029;-90
2022/02/28 18:09:28;;;;;;;42.67;15.88;;;;;;;;;;5278964;23;20064;-89
2022/02/28 18:11:53;;;;;;;32.30;12.77;;;;;;;;;;5839363;23;20846;-89
2022/02/28 18:16:53;;;;;;;17.15;6.93;;;;;;;;;;5678966;23;20820;-82
2022/02/28 18:19:19;;;;;;;16.98;6.70;;;;;;;;;;5056573;28;20052;-87
2022/02/28 18:21:44;;;;;;;18.45;7.03;;;;;;;;;;5070136;23;20128;-85
2022/02/28 18:24:10;;;;;;;18.20;7.10;;;;;;;;;;5058283;28;20026;-86
2022/02/28 18:29:15;;;;;;;19.58;6.40;;;;;;;;;;5410622;23;20082;-85
2022/02/28 18:31:40;;;;;;;21.23;6.07;;;;;;;;;;5098678;28;20027;-85
2022/02/28 18:34:06;;;;;;;20.13;7.60;;;;;;;;;;5098955;28;20008;-85
2022/02/28 19:33:27;;;;;;;17.17;6.72;;;;;;;;;;6008282;22;20057;-85
2022/02/28 19:35:53;;;;;;;19.02;7.22;;;;;;;;;;5057334;28;20024;-86
2022/02/28 21:26:22;;;;;;;18.10;6.47;;;;;;;;;;5973133;22;20041;-84
